Time;durP1;ratioP1;P1;durP2;ratioP2;P2;SDS_P1;SDS_P2;PMS_P1;PMS_P2;Temp;Humidity;BMP_temperature;BMP_pressure;BME280_temperature;BME280_humidity;BME280_pressure;Samples;Min_cycle;Max_cycle;Signal;HPM_P1;HPM_P2
2022/09/11 00:00:20;;;;;;;;;;;20.30;63.20;;;;;;5016851;28;19909;-83
2022/09/11 00:02:45;;;;;;;;;;;20.30;63.20;;;;;;5016861;28;20346;-84
2022/09/11 00:05:11;;;;;;;;;;;20.20;63.20;;;;;;5000032;28;20001;-83
2022/09/11 00:07:36;;;;;;;;;;;20.20;63.20;;;;;;5033883;28;20382;-86
2022/09/11 00:10:02;;;;;;;;;;;20.20;63.20;;;;;;5049764;28;19913;-84
2022/09/11 00:12:28;;;;;;;;;;;20.20;63.20;;;;;;5034659;28;19936;-84
2022/09/11 00:14:53;;;;;;;;;;;20.20;63.20;;;;;;5049666;28;19913;-84
2022/09/11 00:17:20;;;;;;;;;;;20.10;63.20;;;;;;5032801;28;19915;-84
2022/09/11 00:19:46;;;;;;;;;;;20.10;63.20;;;;;;5032948;28;20011;-83
2022/09/11 00:22:12;;;;;;;;;;;20.10;63.20;;;;;;5016161;28;20306;-84
2022/09/11 00:24:37;;;;;;;;;;;20.10;63.20;;;;;;5032930;28;19962;-84
2022/09/11 00:27:03;;;;;;;;;;;20.10;63.20;;;;;;5048996;28;19913;-84
2022/09/11 00:29:29;;;;;;;;;;;20.10;63.30;;;;;;5049012;28;19909;-82
2022/09/11 00:31:56;;;;;;;;;;;20.00;63.20;;;;;;5049302;28;19917;-84
2022/09/11 00:34:22;;;;;;;;;;;20.00;63.20;;;;;;5032354;28;19966;-83
2022/09/11 00:36:47;;;;;;;;;;;20.00;63.20;;;;;;5033809;28;19913;-84
2022/09/11 00:39:13;;;;;;;;;;;20.00;63.30;;;;;;5033179;28;19909;-84
2022/09/11 00:41:41;;;;;;;;;;;20.00;63.30;;;;;;5036634;28;20289;-83
2022/09/11 00:44:27;;;;;;;;;;;20.00;63.90;;;;;;5019994;28;20392;-83
2022/09/11 00:46:54;;;;;;;;;;;19.90;63.30;;;;;;5003588;28;19909;-83
2022/09/11 00:49:22;;;;;;;;;;;19.90;63.30;;;;;;5020196;28;19915;-84
2022/09/11 00:51:52;;;;;;;;;;;19.90;63.30;;;;;;5019833;28;19971;-84
2022/09/11 00:54:20;;;;;;;;;;;19.90;64.00;;;;;;5020035;28;20391;-83
2022/09/11 00:56:46;;;;;;;;;;;19.80;63.30;;;;;;5020542;28;19927;-85
2022/09/11 00:59:12;;;;;;;;;;;19.80;63.40;;;;;;5019989;28;19909;-86
2022/09/11 01:01:38;;;;;;;;;;;19.80;63.40;;;;;;5052860;28;19916;-83
2022/09/11 01:04:04;;;;;;;;;;;19.80;63.40;;;;;;5037420;28;20380;-83
2022/09/11 01:06:31;;;;;;;;;;;19.80;64.10;;;;;;5052452;28;19931;-84
2022/09/11 01:08:58;;;;;;;;;;;19.70;63.30;;;;;;5019435;28;20361;-85
2022/09/11 01:11:23;;;;;;;;;;;19.70;63.40;;;;;;5037320;28;19919;-83
2022/09/11 01:13:52;;;;;;;;;;;19.70;63.40;;;;;;5036480;28;20016;-85
2022/09/11 01:16:29;;;;;;;;;;;19.70;63.40;;;;;;5003406;28;20086;-84
2022/09/11 01:18:57;;;;;;;;;;;19.70;63.50;;;;;;5020068;28;19920;-83
2022/09/11 01:21:41;;;;;;;;;;;19.70;63.50;;;;;;5053549;28;19917;-83
2022/09/11 01:24:19;;;;;;;;;;;19.60;63.40;;;;;;5052704;28;19998;-83
2022/09/11 01:27:05;;;;;;;;;;;19.60;63.50;;;;;;5052482;28;19964;-83
2022/09/11 01:29:44;;;;;;;;;;;19.60;63.50;;;;;;5052361;28;19909;-83
2022/09/11 01:32:16;;;;;;;;;;;19.60;63.60;;;;;;5019178;28;20269;-83
2022/09/11 01:34:45;;;;;;;;;;;19.60;63.60;;;;;;5037484;28;19935;-85
2022/09/11 01:37:14;;;;;;;;;;;19.50;63.60;;;;;;5052414;28;19977;-83
2022/09/11 01:39:43;;;;;;;;;;;19.50;63.60;;;;;;5019426;28;19909;-85
2022/09/11 01:42:16;;;;;;;;;;;19.50;63.60;;;;;;5035595;28;19905;-85
2022/09/11 01:44:58;;;;;;;;;;;19.50;63.60;;;;;;5019096;28;19909;-87
2022/09/11 01:47:27;;;;;;;;;;;19.50;63.60;;;;;;5019884;28;20338;-83
2022/09/11 01:50:07;;;;;;;;;;;19.40;63.60;;;;;;5019317;28;19905;-83
2022/09/11 01:52:35;;;;;;;;;;;19.50;63.60;;;;;;5019138;28;20273;-83
2022/09/11 01:55:12;;;;;;;;;;;19.40;63.60;;;;;;5018928;28;19909;-83
2022/09/11 01:57:45;;;;;;;;;;;19.40;63.60;;;;;;5019665;28;19967;-83
2022/09/11 02:00:13;;;;;;;;;;;19.40;63.70;;;;;;5019157;28;19909;-83
2022/09/11 02:02:56;;;;;;;;;;;19.40;63.70;;;;;;5036915;28;20407;-83
2022/09/11 02:05:26;;;;;;;;;;;19.40;63.70;;;;;;5036164;28;19909;-83
2022/09/11 02:07:58;;;;;;;;;;;19.40;63.70;;;;;;5018489;28;20003;-83
2022/09/11 02:10:28;;;;;;;;;;;19.40;63.80;;;;;;5036136;28;19960;-87
2022/09/11 02:13:01;;;;;;;;;;;19.30;63.70;;;;;;5018763;28;19909;-83
2022/09/11 02:15:31;;;;;;;;;;;19.30;63.80;;;;;;5019131;28;20375;-84
2022/09/11 02:18:00;;;;;;;;;;;19.30;63.80;;;;;;5018671;28;19905;-83
2022/09/11 02:20:27;;;;;;;;;;;19.30;63.80;;;;;;5018452;28;19909;-83
2022/09/11 02:22:53;;;;;;;;;;;19.30;63.80;;;;;;5018532;28;20349;-83
2022/09/11 02:25:19;;;;;;;;;;;19.30;63.80;;;;;;5018581;28;19944;-83
2022/09/11 02:27:45;;;;;;;;;;;19.20;63.80;;;;;;5051408;28;19920;-83
2022/09/11 02:30:11;;;;;;;;;;;19.20;63.80;;;;;;5018127;28;20368;-83
2022/09/11 02:32:39;;;;;;;;;;;19.20;63.80;;;;;;5051907;28;19921;-84
2022/09/11 02:35:05;;;;;;;;;;;19.20;64.10;;;;;;5018182;28;20372;-83
2022/09/11 02:37:53;;;;;;;;;;;19.20;63.90;;;;;;5018157;28;19913;-84
2022/09/11 02:40:19;;;;;;;;;;;19.20;63.90;;;;;;5034353;28;19916;-86
2022/09/11 02:42:51;;;;;;;;;;;19.20;63.90;;;;;;5018271;28;19909;-85
2022/09/11 02:45:34;;;;;;;;;;;19.10;63.90;;;;;;5051889;28;19909;-83
2022/09/11 02:48:27;;;;;;;;;;;19.10;63.90;;;;;;5018126;28;19916;-83
2022/09/11 02:51:08;;;;;;;;;;;19.10;63.90;;;;;;5035054;28;19909;-83
2022/09/11 02:53:38;;;;;;;;;;;19.10;63.90;;;;;;5035180;28;20011;-83
2022/09/11 02:56:08;;;;;;;;;;;19.10;64.00;;;;;;5018062;28;19909;-84
2022/09/11 02:58:45;;;;;;;;;;;19.00;63.90;;;;;;5034960;28;19909;-84
2022/09/11 03:01:11;;;;;;;;;;;19.00;63.90;;;;;;5017827;28;19909;-83
2022/09/11 03:03:43;;;;;;;;;;;19.00;63.90;;;;;;5017273;28;19916;-84
2022/09/11 03:06:12;;;;;;;;;;;19.00;64.00;;;;;;5017228;28;19913;-84
2022/09/11 03:08:39;;;;;;;;;;;19.00;64.00;;;;;;5015257;28;19927;-83
2022/09/11 03:11:05;;;;;;;;;;;19.00;64.00;;;;;;5050815;28;19912;-83
2022/09/11 03:13:32;;;;;;;;;;;19.00;64.00;;;;;;5017865;28;19909;-85
2022/09/11 03:16:03;;;;;;;;;;;19.00;64.10;;;;;;5009234;28;19924;-84
2022/09/11 03:18:30;;;;;;;;;;;18.90;64.00;;;;;;5008902;28;19913;-85
2022/09/11 03:20:56;;;;;;;;;;;18.90;64.00;;;;;;5002938;28;19909;-84
2022/09/11 03:23:21;;;;;;;;;;;18.90;64.10;;;;;;5035199;28;20254;-83
2022/09/11 03:25:47;;;;;;;;;;;18.90;64.00;;;;;;5001178;28;19916;-85
2022/09/11 03:28:13;;;;;;;;;;;18.90;64.10;;;;;;5000787;28;20286;-85
2022/09/11 03:30:40;;;;;;;;;;;18.80;64.00;;;;;;5034992;28;19913;-84
2022/09/11 03:33:06;;;;;;;;;;;18.80;64.00;;;;;;5001140;28;20328;-84
2022/09/11 03:35:32;;;;;;;;;;;18.80;64.10;;;;;;5001143;28;20404;-84
2022/09/11 03:37:58;;;;;;;;;;;18.80;64.10;;;;;;5017013;28;19917;-84
2022/09/11 03:40:23;;;;;;;;;;;18.80;64.10;;;;;;5017316;28;19909;-83
2022/09/11 03:42:49;;;;;;;;;;;18.80;64.10;;;;;;5017088;28;19956;-85
2022/09/11 03:45:16;;;;;;;;;;;18.80;64.10;;;;;;5016943;28;19999;-83
2022/09/11 03:47:41;;;;;;;;;;;18.80;64.20;;;;;;5034354;28;20357;-84
2022/09/11 03:50:08;;;;;;;;;;;18.70;64.10;;;;;;5000815;28;19909;-83
2022/09/11 03:52:34;;;;;;;;;;;18.70;64.10;;;;;;5033417;28;19913;-84
2022/09/11 03:55:01;;;;;;;;;;;18.70;64.10;;;;;;5000534;28;20503;-84
2022/09/11 03:57:26;;;;;;;;;;;18.70;64.10;;;;;;5000722;28;19959;-83
2022/09/11 03:59:54;;;;;;;;;;;18.60;64.10;;;;;;5000869;28;20330;-85
2022/09/11 04:02:22;;;;;;;;;;;18.60;64.10;;;;;;5016973;28;19913;-84
2022/09/11 04:04:48;;;;;;;;;;;18.60;64.10;;;;;;5000739;28;19996;-84
2022/09/11 04:07:14;;;;;;;;;;;18.60;64.10;;;;;;5017126;28;20010;-83
2022/09/11 04:09:39;;;;;;;;;;;18.60;64.10;;;;;;5050048;28;20285;-85
2022/09/11 04:12:05;;;;;;;;;;;18.60;64.20;;;;;;5033238;28;19924;-84
2022/09/11 04:14:31;;;;;;;;;;;18.50;64.10;;;;;;5017095;28;19917;-84
2022/09/11 04:16:58;;;;;;;;;;;18.50;64.10;;;;;;5033574;28;19913;-85
2022/09/11 04:19:25;;;;;;;;;;;18.50;64.20;;;;;;5033284;28;19915;-85
2022/09/11 04:21:52;;;;;;;;;;;18.50;64.20;;;;;;5049599;28;19972;-85
2022/09/11 04:24:19;;;;;;;;;;;18.50;64.20;;;;;;5050114;28;19921;-84
2022/09/11 04:26:45;;;;;;;;;;;18.50;64.20;;;;;;5050601;28;19913;-83
2022/09/11 04:29:16;;;;;;;;;;;18.50;64.20;;;;;;5050046;28;19920;-84
2022/09/11 04:31:43;;;;;;;;;;;18.50;64.30;;;;;;5049653;28;20358;-85
2022/09/11 04:34:11;;;;;;;;;;;18.40;64.20;;;;;;5016562;28;19920;-85
2022/09/11 04:36:37;;;;;;;;;;;18.40;64.20;;;;;;5016841;28;20024;-84
2022/09/11 04:39:03;;;;;;;;;;;18.40;64.20;;;;;;5032885;28;19951;-83
2022/09/11 04:41:30;;;;;;;;;;;18.40;64.20;;;;;;5049492;28;19920;-84
2022/09/11 04:44:01;;;;;;;;;;;18.40;64.30;;;;;;5033266;28;19913;-83
2022/09/11 04:46:27;;;;;;;;;;;18.40;64.30;;;;;;5032916;28;19920;-84
2022/09/11 04:48:54;;;;;;;;;;;18.40;64.30;;;;;;5016782;28;19909;-85
2022/09/11 04:51:35;;;;;;;;;;;18.30;64.30;;;;;;5013206;28;19919;-83
2022/09/11 04:54:01;;;;;;;;;;;18.30;64.30;;;;;;5046514;28;19936;-85
2022/09/11 04:56:36;;;;;;;;;;;18.30;64.30;;;;;;5050105;28;19974;-87
2022/09/11 04:59:12;;;;;;;;;;;18.30;64.60;;;;;;5016703;28;19913;-85
2022/09/11 05:01:38;;;;;;;;;;;18.30;64.40;;;;;;5016231;28;20358;-84
2022/09/11 05:04:04;;;;;;;;;;;18.20;64.30;;;;;;5049331;28;19910;-84
2022/09/11 05:06:30;;;;;;;;;;;18.20;64.30;;;;;;5032952;28;19920;-87
2022/09/11 05:09:06;;;;;;;;;;;18.20;64.30;;;;;;5015841;28;20361;-84
2022/09/11 05:11:33;;;;;;;;;;;18.20;64.40;;;;;;5016417;28;20347;-83
2022/09/11 05:13:59;;;;;;;;;;;18.20;64.40;;;;;;5048942;28;19971;-84
2022/09/11 05:16:28;;;;;;;;;;;18.20;64.40;;;;;;5049075;28;19913;-83
2022/09/11 05:18:55;;;;;;;;;;;18.20;64.40;;;;;;5032578;28;20047;-83
2022/09/11 05:21:23;;;;;;;;;;;18.20;64.40;;;;;;5016269;28;19931;-83
2022/09/11 05:23:50;;;;;;;;;;;18.20;64.50;;;;;;5016110;28;19909;-84
2022/09/11 05:26:16;;;;;;;;;;;18.10;64.40;;;;;;5017937;28;19912;-83
2022/09/11 05:28:43;;;;;;;;;;;18.10;64.50;;;;;;5019369;28;20000;-83
2022/09/11 05:31:11;;;;;;;;;;;18.10;64.50;;;;;;5019678;28;19920;-85
2022/09/11 05:33:36;;;;;;;;;;;18.10;64.50;;;;;;5019640;28;19909;-84
2022/09/11 05:36:03;;;;;;;;;;;18.10;64.50;;;;;;5041785;28;19913;-84
2022/09/11 05:38:29;;;;;;;;;;;18.10;64.60;;;;;;5026388;28;19928;-85
2022/09/11 05:40:55;;;;;;;;;;;18.10;64.50;;;;;;5037197;28;19917;-84
2022/09/11 05:43:21;;;;;;;;;;;18.10;64.60;;;;;;5053009;28;20273;-83
2022/09/11 05:45:55;;;;;;;;;;;18.10;64.60;;;;;;5019230;28;19920;-84
2022/09/11 05:48:23;;;;;;;;;;;18.10;64.60;;;;;;5036840;28;19971;-84
2022/09/11 05:50:53;;;;;;;;;;;18.00;64.60;;;;;;5036281;28;20319;-84
2022/09/11 05:53:20;;;;;;;;;;;18.00;64.60;;;;;;5052266;28;19921;-84
2022/09/11 05:55:46;;;;;;;;;;;18.00;64.60;;;;;;5036948;28;20323;-87
2022/09/11 05:58:12;;;;;;;;;;;18.00;64.60;;;;;;5036315;28;20257;-83
2022/09/11 06:00:39;;;;;;;;;;;18.00;64.60;;;;;;5019095;28;19955;-84
2022/09/11 06:03:06;;;;;;;;;;;18.00;64.60;;;;;;5052096;28;19921;-83
2022/09/11 06:05:32;;;;;;;;;;;18.00;64.70;;;;;;5035418;28;19957;-83
2022/09/11 06:08:00;;;;;;;;;;;18.00;64.70;;;;;;5018483;28;19917;-85
2022/09/11 06:10:27;;;;;;;;;;;18.00;64.70;;;;;;5019929;28;19963;-86
2022/09/11 06:12:52;;;;;;;;;;;18.00;64.70;;;;;;5051835;28;20387;-83
2022/09/11 06:15:18;;;;;;;;;;;18.00;64.70;;;;;;5051794;28;19987;-84
2022/09/11 06:17:44;;;;;;;;;;;18.00;64.70;;;;;;5035747;28;20004;-84
2022/09/11 06:20:11;;;;;;;;;;;18.00;65.40;;;;;;5051463;28;19913;-85
2022/09/11 06:22:37;;;;;;;;;;;18.00;64.80;;;;;;5035207;28;19971;-84
2022/09/11 06:25:03;;;;;;;;;;;18.00;64.80;;;;;;5034896;28;20369;-84
2022/09/11 06:27:29;;;;;;;;;;;17.90;64.70;;;;;;5018098;28;19905;-84
2022/09/11 06:29:55;;;;;;;;;;;18.00;64.80;;;;;;5035117;28;19963;-83
2022/09/11 06:32:20;;;;;;;;;;;18.00;64.80;;;;;;5018623;28;20287;-84
2022/09/11 06:34:46;;;;;;;;;;;18.00;64.80;;;;;;5018464;28;19913;-85
2022/09/11 06:37:13;;;;;;;;;;;18.00;64.80;;;;;;5034950;28;19915;-83
2022/09/11 06:39:39;;;;;;;;;;;18.00;64.80;;;;;;5019300;28;19913;-84
2022/09/11 06:42:06;;;;;;;;;;;18.00;64.80;;;;;;5052311;28;19916;-84
2022/09/11 06:44:34;;;;;;;;;;;18.00;64.80;;;;;;5018810;28;20000;-87
2022/09/11 06:47:01;;;;;;;;;;;18.00;64.80;;;;;;5050884;28;19909;-85
2022/09/11 06:49:26;;;;;;;;;;;18.00;64.90;;;;;;5034821;28;19948;-85
2022/09/11 06:52:11;;;;;;;;;;;18.00;64.90;;;;;;5035909;28;19964;-85
2022/09/11 06:54:39;;;;;;;;;;;18.00;64.90;;;;;;5018182;28;19921;-85
2022/09/11 06:57:09;;;;;;;;;;;18.00;64.90;;;;;;5018565;28;19913;-85
2022/09/11 06:59:35;;;;;;;;;;;18.00;64.90;;;;;;5034958;28;19920;-86
2022/09/11 07:02:01;;;;;;;;;;;18.00;64.90;;;;;;5051698;28;19959;-87
2022/09/11 07:04:27;;;;;;;;;;;18.10;65.00;;;;;;5052026;28;19913;-86
2022/09/11 07:06:53;;;;;;;;;;;18.00;65.00;;;;;;5035554;28;19909;-85
2022/09/11 07:09:18;;;;;;;;;;;18.00;65.60;;;;;;5018355;28;19916;-86
2022/09/11 07:11:52;;;;;;;;;;;18.00;65.00;;;;;;5051586;28;19917;-85
2022/09/11 07:14:22;;;;;;;;;;;18.10;65.00;;;;;;5051203;28;19920;-86
2022/09/11 07:16:53;;;;;;;;;;;18.10;65.00;;;;;;5033887;28;20003;-85
2022/09/11 07:19:20;;;;;;;;;;;18.10;65.20;;;;;;5033840;28;19944;-83
2022/09/11 07:21:45;;;;;;;;;;;18.10;65.00;;;;;;5017595;28;19980;-84
2022/09/11 07:24:11;;;;;;;;;;;18.10;65.00;;;;;;5017253;28;19916;-83
2022/09/11 07:26:39;;;;;;;;;;;18.10;65.00;;;;;;5034312;28;20404;-85
2022/09/11 07:29:11;;;;;;;;;;;18.10;65.70;;;;;;5051264;28;19996;-85
2022/09/11 07:31:38;;;;;;;;;;;18.20;65.10;;;;;;5033804;28;20020;-85
2022/09/11 07:34:04;;;;;;;;;;;18.20;65.10;;;;;;5017476;28;19931;-85
2022/09/11 07:36:32;;;;;;;;;;;18.20;65.10;;;;;;5033964;28;19929;-84
2022/09/11 07:38:59;;;;;;;;;;;18.20;65.10;;;;;;5017253;28;20276;-83
2022/09/11 07:41:33;;;;;;;;;;;18.20;65.10;;;;;;5035465;28;19908;-85
2022/09/11 07:44:05;;;;;;;;;;;18.20;65.00;;;;;;5050124;28;19916;-85
2022/09/11 07:46:31;;;;;;;;;;;18.20;65.10;;;;;;5017241;28;19909;-84
2022/09/11 07:49:01;;;;;;;;;;;18.20;65.00;;;;;;5034584;28;19983;-86
2022/09/11 07:51:28;;;;;;;;;;;18.30;65.70;;;;;;5033439;28;20362;-83
2022/09/11 07:53:58;;;;;;;;;;;18.20;65.00;;;;;;5033479;28;19978;-83
2022/09/11 07:56:26;;;;;;;;;;;18.30;65.10;;;;;;5036237;28;19905;-87
2022/09/11 07:58:53;;;;;;;;;;;18.30;65.10;;;;;;5025539;28;19927;-87
2022/09/11 08:01:22;;;;;;;;;;;18.30;65.00;;;;;;5037943;28;19905;-85
2022/09/11 08:03:51;;;;;;;;;;;18.30;65.10;;;;;;5018905;28;20226;-86
2022/09/11 08:06:18;;;;;;;;;;;18.30;65.00;;;;;;5018208;28;20044;-86
2022/09/11 08:08:50;;;;;;;;;;;18.30;65.00;;;;;;5016867;28;19924;-85
2022/09/11 08:11:16;;;;;;;;;;;18.40;65.10;;;;;;5033118;28;19909;-82
2022/09/11 08:13:45;;;;;;;;;;;18.40;65.10;;;;;;5016313;28;19916;-82
2022/09/11 08:16:11;;;;;;;;;;;18.40;65.10;;;;;;5016555;28;20004;-83
2022/09/11 08:18:37;;;;;;;;;;;18.40;65.00;;;;;;5032933;28;19909;-83
2022/09/11 08:21:05;;;;;;;;;;;18.40;65.00;;;;;;5049102;28;19920;-83
2022/09/11 08:23:32;;;;;;;;;;;18.40;65.00;;;;;;5016441;28;20257;-82
2022/09/11 08:26:04;;;;;;;;;;;18.40;65.00;;;;;;5032838;28;19920;-82
2022/09/11 08:28:29;;;;;;;;;;;18.50;65.00;;;;;;5016188;28;20000;-82
2022/09/11 08:30:57;;;;;;;;;;;18.40;65.00;;;;;;5050110;28;19959;-82
2022/09/11 08:33:22;;;;;;;;;;;18.50;65.00;;;;;;5016469;28;20008;-84
2022/09/11 08:35:48;;;;;;;;;;;18.50;65.00;;;;;;5017329;28;19940;-83
2022/09/11 08:38:14;;;;;;;;;;;18.50;65.00;;;;;;5049748;28;19909;-84
2022/09/11 08:40:40;;;;;;;;;;;18.50;65.00;;;;;;5033450;28;19928;-84
2022/09/11 08:43:11;;;;;;;;;;;18.60;65.00;;;;;;5033075;28;19913;-85
2022/09/11 08:45:36;;;;;;;;;;;18.60;65.00;;;;;;5016331;28;19916;-86
2022/09/11 08:48:05;;;;;;;;;;;18.60;65.00;;;;;;5033017;28;19940;-90
2022/09/11 08:50:40;;;;;;;;;;;18.60;65.00;;;;;;5049666;28;19913;-87
2022/09/11 08:53:08;;;;;;;;;;;18.70;65.00;;;;;;5016247;28;19913;-84
2022/09/11 08:55:38;;;;;;;;;;;18.70;64.90;;;;;;5016353;28;19949;-83
2022/09/11 08:58:10;;;;;;;;;;;18.80;64.90;;;;;;5016381;28;19909;-83
2022/09/11 09:00:44;;;;;;;;;;;18.80;64.90;;;;;;5017437;28;20014;-82
2022/09/11 09:03:11;;;;;;;;;;;18.80;64.80;;;;;;5053549;28;19913;-82
2022/09/11 09:06:07;;;;;;;;;;;18.90;64.80;;;;;;5036409;28;20321;-86
2022/09/11 09:08:44;;;;;;;;;;;18.90;64.70;;;;;;5015486;28;19959;-86
2022/09/11 09:11:29;;;;;;;;;;;19.00;64.70;;;;;;5019923;28;20123;-85
2022/09/11 09:14:05;;;;;;;;;;;19.00;64.60;;;;;;5035963;28;19919;-84
2022/09/11 09:16:52;;;;;;;;;;;19.10;64.50;;;;;;5019890;28;19905;-83
2022/09/11 09:19:43;;;;;;;;;;;19.20;64.50;;;;;;5019823;28;19953;-84
2022/09/11 09:22:09;;;;;;;;;;;19.20;64.50;;;;;;5010410;28;19909;-84
2022/09/11 09:24:41;;;;;;;;;;;19.30;64.40;;;;;;5053210;28;19912;-85
2022/09/11 09:27:10;;;;;;;;;;;19.40;64.40;;;;;;5019777;28;20294;-85
2022/09/11 09:29:38;;;;;;;;;;;19.50;64.30;;;;;;5052916;28;19905;-85
2022/09/11 09:32:10;;;;;;;;;;;19.50;64.30;;;;;;5019927;28;19913;-85
2022/09/11 09:34:37;;;;;;;;;;;19.60;64.30;;;;;;5020085;28;19912;-84
2022/09/11 09:37:21;;;;;;;;;;;19.70;64.30;;;;;;5019431;28;19912;-84
2022/09/11 09:39:47;;;;;;;;;;;19.80;64.20;;;;;;5018978;28;19908;-84
2022/09/11 09:42:20;;;;;;;;;;;19.90;64.20;;;;;;5035994;28;19954;-83
2022/09/11 09:44:49;;;;;;;;;;;19.90;64.10;;;;;;5035928;28;19948;-84
2022/09/11 09:47:15;;;;;;;;;;;20.00;64.10;;;;;;5053166;28;19921;-83
2022/09/11 09:49:42;;;;;;;;;;;20.10;64.00;;;;;;5019415;28;20310;-83
2022/09/11 09:52:18;;;;;;;;;;;20.20;64.10;;;;;;5019382;28;19932;-83
2022/09/11 09:55:00;;;;;;;;;;;20.30;64.10;;;;;;5037129;28;19913;-85
2022/09/11 09:57:30;;;;;;;;;;;20.30;64.00;;;;;;5036880;28;19909;-83
2022/09/11 10:00:05;;;;;;;;;;;20.40;64.10;;;;;;5036763;28;19954;-86
2022/09/11 10:02:39;;;;;;;;;;;20.50;64.10;;;;;;5038015;28;19909;-85
2022/09/11 10:05:07;;;;;;;;;;;20.60;64.10;;;;;;5019282;28;20317;-85
2022/09/11 10:07:32;;;;;;;;;;;20.70;64.30;;;;;;5036646;28;20012;-89
2022/09/11 10:10:02;;;;;;;;;;;20.70;64.50;;;;;;5035825;28;19917;-92
2022/09/11 10:12:30;;;;;;;;;;;20.90;64.80;;;;;;5035614;28;20270;-83
2022/09/11 10:14:57;;;;;;;;;;;21.00;64.80;;;;;;5020797;28;19913;-83
2022/09/11 10:17:37;;;;;;;;;;;21.10;64.90;;;;;;5027315;28;19905;-84
2022/09/11 10:20:12;;;;;;;;;;;21.10;64.80;;;;;;5027560;28;19959;-84
2022/09/11 10:22:37;;;;;;;;;;;21.20;64.70;;;;;;5020376;28;19909;-85
2022/09/11 10:25:11;;;;;;;;;;;21.40;64.80;;;;;;5052318;28;20408;-85
2022/09/11 10:27:39;;;;;;;;;;;21.50;64.70;;;;;;5018692;28;20297;-85
2022/09/11 10:30:05;;;;;;;;;;;21.60;64.60;;;;;;5018656;28;19901;-84
2022/09/11 10:32:32;;;;;;;;;;;21.60;64.50;;;;;;5051678;28;20058;-83
2022/09/11 10:34:58;;;;;;;;;;;21.80;64.50;;;;;;5018156;28;19909;-85
2022/09/11 10:37:28;;;;;;;;;;;21.80;64.30;;;;;;5018969;28;19913;-84
2022/09/11 10:40:01;;;;;;;;;;;21.90;64.30;;;;;;5018470;28;20003;-84
2022/09/11 10:42:29;;;;;;;;;;;22.00;64.20;;;;;;5035051;28;19909;-84
2022/09/11 10:44:58;;;;;;;;;;;22.10;64.20;;;;;;5034924;28;19913;-83
2022/09/11 10:47:25;;;;;;;;;;;22.10;64.00;;;;;;5018044;28;19913;-84
2022/09/11 10:50:09;;;;;;;;;;;22.20;64.00;;;;;;5051031;28;20301;-84
2022/09/11 10:52:45;;;;;;;;;;;22.30;64.00;;;;;;5017390;28;19919;-84
2022/09/11 10:55:14;;;;;;;;;;;22.40;64.00;;;;;;5035436;28;19920;-84
2022/09/11 10:57:44;;;;;;;;;;;22.40;63.90;;;;;;5051342;28;20346;-84
2022/09/11 11:00:16;;;;;;;;;;;22.50;63.90;;;;;;5017928;28;19916;-83
2022/09/11 11:02:43;;;;;;;;;;;22.50;63.90;;;;;;5051033;28;19962;-85
2022/09/11 11:05:12;;;;;;;;;;;22.60;63.80;;;;;;5017716;28;19909;-84
2022/09/11 11:07:39;;;;;;;;;;;22.70;63.80;;;;;;5017430;28;19970;-84
2022/09/11 11:10:13;;;;;;;;;;;22.70;63.80;;;;;;5051552;28;19940;-83
2022/09/11 11:12:45;;;;;;;;;;;22.70;63.80;;;;;;5017876;28;19917;-85
2022/09/11 11:15:34;;;;;;;;;;;22.80;63.80;;;;;;5035804;28;19921;-84
2022/09/11 11:18:00;;;;;;;;;;;22.90;63.80;;;;;;5017621;28;19996;-85
2022/09/11 11:20:34;;;;;;;;;;;22.90;63.80;;;;;;5051314;28;20314;-82
2022/09/11 11:23:17;;;;;;;;;;;23.00;63.90;;;;;;5033314;28;20277;-83
2022/09/11 11:25:53;;;;;;;;;;;23.00;63.80;;;;;;5034752;28;19909;-84
2022/09/11 11:28:18;;;;;;;;;;;23.00;63.80;;;;;;5034850;28;19913;-86
2022/09/11 11:31:02;;;;;;;;;;;23.10;63.90;;;;;;5050410;28;19905;-83
2022/09/11 11:33:41;;;;;;;;;;;23.20;63.90;;;;;;5034784;28;20003;-82
2022/09/11 11:36:23;;;;;;;;;;;23.20;63.90;;;;;;5050292;28;19958;-84
2022/09/11 11:38:59;;;;;;;;;;;23.20;64.00;;;;;;5034772;28;19912;-83
2022/09/11 11:41:25;;;;;;;;;;;23.30;64.00;;;;;;5033505;28;19909;-83
2022/09/11 11:43:51;;;;;;;;;;;23.30;64.00;;;;;;5034703;28;19964;-83
2022/09/11 11:46:24;;;;;;;;;;;23.30;63.90;;;;;;5034722;28;19909;-84
2022/09/11 11:48:52;;;;;;;;;;;23.40;64.00;;;;;;5016673;28;19912;-82
2022/09/11 11:51:20;;;;;;;;;;;23.40;64.00;;;;;;5033820;28;19924;-87
2022/09/11 11:53:58;;;;;;;;;;;23.50;64.00;;;;;;5016911;28;20274;-84
2022/09/11 11:56:37;;;;;;;;;;;23.50;64.00;;;;;;5034773;28;19916;-83
2022/09/11 11:59:12;;;;;;;;;;;23.50;64.00;;;;;;5034026;28;19909;-84
2022/09/11 12:01:41;;;;;;;;;;;23.60;64.00;;;;;;5034366;28;19916;-84
2022/09/11 12:04:07;;;;;;;;;;;23.60;64.00;;;;;;5034369;28;20360;-84
2022/09/11 12:06:34;;;;;;;;;;;23.60;64.00;;;;;;5016496;28;19909;-82
2022/09/11 12:09:00;;;;;;;;;;;23.60;64.00;;;;;;5032910;28;20300;-83
2022/09/11 12:11:28;;;;;;;;;;;23.70;64.10;;;;;;5016133;28;19913;-81
2022/09/11 12:13:54;;;;;;;;;;;23.70;64.00;;;;;;5033573;28;20375;-84
2022/09/11 12:16:23;;;;;;;;;;;23.70;64.00;;;;;;5016221;28;19905;-85
2022/09/11 12:19:02;;;;;;;;;;;23.70;64.00;;;;;;5016212;28;19905;-84
2022/09/11 12:21:30;;;;;;;;;;;23.80;64.00;;;;;;5016099;28;19924;-82
2022/09/11 12:23:55;;;;;;;;;;;23.80;64.00;;;;;;5032629;28;20265;-85
2022/09/11 12:26:25;;;;;;;;;;;23.80;64.00;;;;;;5049163;28;19909;-89
2022/09/11 12:29:10;;;;;;;;;;;23.90;64.00;;;;;;5032577;28;19913;-82
2022/09/11 12:31:48;;;;;;;;;;;23.90;64.00;;;;;;5016400;28;20369;-86
2022/09/11 12:34:16;;;;;;;;;;;24.00;64.00;;;;;;5033043;28;19963;-84
2022/09/11 12:36:47;;;;;;;;;;;24.00;63.90;;;;;;5022876;28;19905;-84
2022/09/11 12:39:31;;;;;;;;;;;24.00;63.90;;;;;;5031216;28;20333;-86
2022/09/11 12:42:15;;;;;;;;;;;24.00;63.90;;;;;;5028234;28;19909;-85
2022/09/11 12:44:44;;;;;;;;;;;24.00;63.80;;;;;;5039018;28;20372;-85
2022/09/11 12:47:15;;;;;;;;;;;24.10;63.80;;;;;;5038097;28;19905;-85
2022/09/11 12:49:42;;;;;;;;;;;24.10;63.80;;;;;;5021098;28;20237;-86
2022/09/11 12:52:17;;;;;;;;;;;24.10;63.80;;;;;;5020816;28;19915;-84
2022/09/11 12:54:43;;;;;;;;;;;24.20;63.80;;;;;;5021110;28;20375;-85
2022/09/11 12:57:14;;;;;;;;;;;24.20;63.70;;;;;;5037599;28;19917;-85
2022/09/11 12:59:42;;;;;;;;;;;24.20;63.70;;;;;;5038484;28;19915;-86
2022/09/11 13:02:27;;;;;;;;;;;24.20;63.70;;;;;;5038532;28;19905;-84
2022/09/11 13:04:53;;;;;;;;;;;24.30;63.60;;;;;;5053471;28;19909;-86
2022/09/11 13:07:50;;;;;;;;;;;24.30;63.60;;;;;;5036814;28;19921;-85
2022/09/11 13:10:26;;;;;;;;;;;24.30;63.60;;;;;;5012261;28;20004;-85
2022/09/11 13:12:54;;;;;;;;;;;24.40;63.60;;;;;;5036795;28;19917;-85
2022/09/11 13:15:31;;;;;;;;;;;24.30;63.50;;;;;;5020488;28;19916;-85
2022/09/11 13:17:56;;;;;;;;;;;24.30;63.50;;;;;;5037818;28;19913;-85
2022/09/11 13:20:22;;;;;;;;;;;24.40;63.50;;;;;;5036814;28;19909;-85
2022/09/11 13:22:50;;;;;;;;;;;24.40;63.50;;;;;;5036442;28;20020;-86
2022/09/11 13:25:15;;;;;;;;;;;24.40;63.50;;;;;;5020152;28;20031;-85
2022/09/11 13:27:43;;;;;;;;;;;24.40;63.40;;;;;;5037231;28;19916;-85
2022/09/11 13:30:11;;;;;;;;;;;24.40;63.50;;;;;;5019639;28;19917;-84
2022/09/11 13:32:37;;;;;;;;;;;24.40;63.40;;;;;;5019601;28;19912;-84
2022/09/11 13:35:09;;;;;;;;;;;24.40;63.40;;;;;;5019783;28;19909;-85
2022/09/11 13:37:37;;;;;;;;;;;24.40;63.40;;;;;;5020390;28;19913;-85
2022/09/11 13:40:04;;;;;;;;;;;24.50;63.40;;;;;;5037456;28;19905;-86
2022/09/11 13:42:30;;;;;;;;;;;24.40;63.30;;;;;;5020777;28;20015;-86
2022/09/11 13:44:57;;;;;;;;;;;24.50;63.40;;;;;;5037651;28;19916;-86
2022/09/11 13:47:27;;;;;;;;;;;24.50;63.30;;;;;;5036053;28;19913;-83
2022/09/11 13:50:05;;;;;;;;;;;24.50;63.20;;;;;;5020250;28;19913;-86
2022/09/11 13:52:32;;;;;;;;;;;24.50;63.20;;;;;;5003590;28;19913;-86
2022/09/11 13:54:59;;;;;;;;;;;24.50;63.20;;;;;;5036346;28;19909;-85
2022/09/11 13:57:27;;;;;;;;;;;24.60;63.20;;;;;;5036974;28;19917;-84
2022/09/11 13:59:55;;;;;;;;;;;24.60;63.20;;;;;;5019360;28;19996;-84
2022/09/11 14:02:33;;;;;;;;;;;24.60;63.20;;;;;;5052370;28;19963;-83
2022/09/11 14:05:03;;;;;;;;;;;24.60;63.10;;;;;;5036537;28;19959;-85
2022/09/11 14:07:29;;;;;;;;;;;24.60;63.00;;;;;;5019256;28;19925;-85
2022/09/11 14:10:06;;;;;;;;;;;24.60;63.00;;;;;;5036809;28;19909;-85
2022/09/11 14:12:33;;;;;;;;;;;24.70;63.00;;;;;;5019755;28;20258;-85
2022/09/11 14:15:01;;;;;;;;;;;24.60;62.90;;;;;;5019078;28;20373;-84
2022/09/11 14:17:28;;;;;;;;;;;24.70;62.90;;;;;;5018964;28;19997;-85
2022/09/11 14:19:58;;;;;;;;;;;24.70;62.90;;;;;;5035003;28;19912;-84
2022/09/11 14:22:26;;;;;;;;;;;24.70;62.90;;;;;;5018608;28;19909;-84
2022/09/11 14:24:56;;;;;;;;;;;24.80;62.90;;;;;;5034778;28;19912;-82
2022/09/11 14:27:47;;;;;;;;;;;24.80;62.80;;;;;;5018585;28;19913;-86
2022/09/11 14:30:29;;;;;;;;;;;24.80;62.80;;;;;;5001912;28;19915;-84